createdAt,value
2019-05-02T00:00:12.976Z,9.13
2019-05-02T00:02:41.623Z,6.78
2019-05-02T00:05:09.151Z,6.85
2019-05-02T00:07:36.099Z,7.25
2019-05-02T00:10:07.152Z,9.55
2019-05-02T00:12:34.016Z,12.00
2019-05-02T00:15:05.685Z,6.22
2019-05-02T00:17:33.251Z,9.28
2019-05-02T00:20:01.208Z,6.62
2019-05-02T00:22:27.970Z,5.40
2019-05-02T00:24:54.768Z,5.47
2019-05-02T00:27:21.610Z,7.83
2019-05-02T00:29:48.486Z,8.08
2019-05-02T00:32:18.390Z,5.08
2019-05-02T00:34:44.058Z,10.13
2019-05-02T00:37:10.969Z,6.40
2019-05-02T00:39:37.751Z,6.55
2019-05-02T00:42:12.563Z,9.20
2019-05-02T00:44:33.392Z,7.33
2019-05-02T00:47:06.016Z,7.95
2019-05-02T00:49:30.856Z,6.80
2019-05-02T00:52:01.374Z,7.97
2019-05-02T00:54:26.399Z,7.85
2019-05-02T00:56:53.155Z,6.50
2019-05-02T00:59:19.921Z,6.05
2019-05-02T01:01:52.384Z,7.10
2019-05-02T01:04:29.757Z,10.75
2019-05-02T01:06:57.046Z,8.98
2019-05-02T01:09:23.943Z,9.48
2019-05-02T01:11:50.798Z,8.03
2019-05-02T01:14:17.677Z,7.95
2019-05-02T01:16:44.334Z,9.50
2019-05-02T01:19:12.083Z,6.47
2019-05-02T01:21:40.123Z,6.85
2019-05-02T01:24:07.999Z,7.95
2019-05-02T01:26:36.653Z,6.85
2019-05-02T01:29:14.079Z,7.85
2019-05-02T01:31:42.767Z,7.05
2019-05-02T01:34:29.720Z,6.50
2019-05-02T01:37:07.218Z,8.85
2019-05-02T01:39:37.964Z,7.72
2019-05-02T01:42:04.143Z,6.47
2019-05-02T01:44:36.256Z,8.88
2019-05-02T01:47:00.114Z,6.70
2019-05-02T01:49:26.754Z,7.22
2019-05-02T01:51:53.603Z,11.00
2019-05-02T01:54:20.292Z,8.45
2019-05-02T01:56:46.930Z,7.03
2019-05-02T01:59:13.591Z,8.20
2019-05-02T02:01:40.271Z,6.60
2019-05-02T02:04:07.032Z,8.30
2019-05-02T02:06:33.888Z,8.03
2019-05-02T02:09:03.465Z,8.95
2019-05-02T02:11:34.249Z,8.33
2019-05-02T02:13:59.764Z,12.43
2019-05-02T02:16:26.606Z,7.03
2019-05-02T02:19:07.174Z,6.65
2019-05-02T02:21:35.818Z,10.13
2019-05-02T02:24:13.650Z,7.80
2019-05-02T02:26:43.724Z,11.03
2019-05-02T02:29:09.375Z,7.67
2019-05-02T02:31:39.716Z,6.87
2019-05-02T02:34:04.771Z,13.28
2019-05-02T02:36:34.745Z,12.47
2019-05-02T02:39:00.323Z,10.90
2019-05-02T02:41:27.172Z,10.90
2019-05-02T02:44:08.025Z,14.28
2019-05-02T02:46:37.752Z,11.70
2019-05-02T02:49:05.269Z,12.80
2019-05-02T02:51:32.032Z,9.68
2019-05-02T02:54:03.931Z,10.53
2019-05-02T02:56:27.348Z,13.15
2019-05-02T02:58:54.125Z,14.45
2019-05-02T03:01:28.912Z,10.28
2019-05-02T03:03:50.201Z,8.30
2019-05-02T03:06:16.970Z,13.70
2019-05-02T03:08:46.282Z,10.03
2019-05-02T03:11:22.375Z,9.15
2019-05-02T03:13:52.504Z,7.78
2019-05-02T03:16:17.913Z,10.93
2019-05-02T03:18:44.700Z,10.05
2019-05-02T03:21:13.392Z,9.28
2019-05-02T03:23:40.046Z,11.45
2019-05-02T03:26:07.884Z,8.63
2019-05-02T03:28:35.493Z,9.13
2019-05-02T03:31:21.244Z,9.30
2019-05-02T03:33:30.945Z,8.25
2019-05-02T03:35:57.721Z,8.25
2019-05-02T03:38:32.183Z,8.48
2019-05-02T03:40:53.345Z,9.15
2019-05-02T03:43:25.523Z,9.68
2019-05-02T03:45:48.956Z,7.65
2019-05-02T03:48:18.181Z,10.50
2019-05-02T03:50:44.331Z,11.75
2019-05-02T03:53:11.335Z,12.35
2019-05-02T03:55:38.251Z,11.88
2019-05-02T03:58:13.361Z,11.83
2019-05-02T04:00:36.606Z,10.23
2019-05-02T04:03:04.581Z,13.05
2019-05-02T04:05:33.867Z,14.13
2019-05-02T04:07:59.928Z,9.95
2019-05-02T04:10:44.912Z,10.58
2019-05-02T04:13:12.089Z,8.85
2019-05-02T04:15:39.040Z,12.23
2019-05-02T04:18:08.395Z,11.00
2019-05-02T04:20:34.457Z,7.33
2019-05-02T04:23:01.622Z,9.70
2019-05-02T04:25:33.956Z,8.60
2019-05-02T04:27:58.759Z,9.00
2019-05-02T04:30:25.500Z,7.60
2019-05-02T04:32:55.997Z,7.65
2019-05-02T04:37:52.597Z,11.97
2019-05-02T04:40:19.333Z,7.65
2019-05-02T04:42:53.507Z,8.65
2019-05-02T04:45:26.412Z,12.73
2019-05-02T04:47:54.587Z,8.73
2019-05-02T04:50:18.311Z,12.47
2019-05-02T04:52:48.247Z,16.35
2019-05-02T04:55:19.849Z,14.90
2019-05-02T04:57:46.820Z,11.75
2019-05-02T05:00:11.618Z,8.38
2019-05-02T05:02:39.347Z,11.00
2019-05-02T05:05:08.213Z,8.10
2019-05-02T05:07:41.115Z,11.68
2019-05-02T05:10:04.766Z,9.53
2019-05-02T05:12:32.541Z,9.45
2019-05-02T05:15:00.472Z,8.98
2019-05-02T05:17:32.737Z,9.80
2019-05-02T05:19:57.351Z,10.05
2019-05-02T05:22:24.131Z,10.43
2019-05-02T05:24:52.871Z,10.75
2019-05-02T05:27:22.800Z,9.00
2019-05-02T05:29:48.672Z,7.95
2019-05-02T05:32:17.789Z,10.63
2019-05-02T05:34:44.164Z,9.85
2019-05-02T05:37:13.400Z,9.98
2019-05-02T05:39:43.159Z,9.60
2019-05-02T05:42:10.342Z,12.37
2019-05-02T05:44:37.781Z,9.80
2019-05-02T05:47:07.242Z,15.23
2019-05-02T05:49:33.651Z,9.90
2019-05-02T05:52:03.810Z,10.68
2019-05-02T05:54:33.122Z,11.03
2019-05-02T05:56:57.820Z,10.35
2019-05-02T05:59:28.280Z,7.37
2019-05-02T06:01:53.268Z,7.45
2019-05-02T06:04:24.009Z,8.85
2019-05-02T06:06:48.528Z,8.98
2019-05-02T06:09:15.298Z,9.55
2019-05-02T06:11:42.049Z,10.25
2019-05-02T06:14:08.712Z,12.80
2019-05-02T06:16:35.567Z,6.72
2019-05-02T06:19:03.519Z,8.08
2019-05-02T06:21:30.380Z,10.38
2019-05-02T06:23:57.145Z,8.80
2019-05-02T06:26:24.082Z,8.93
2019-05-02T06:28:50.963Z,10.15
2019-05-02T06:31:17.716Z,7.58
2019-05-02T06:33:44.574Z,11.73
2019-05-02T06:36:11.345Z,7.72
2019-05-02T06:38:38.015Z,10.63
2019-05-02T06:41:04.843Z,7.45
2019-05-02T06:43:31.602Z,10.48
2019-05-02T06:45:58.373Z,8.23
2019-05-02T06:48:25.256Z,8.35
2019-05-02T06:50:52.007Z,11.97
2019-05-02T06:53:18.866Z,9.65
2019-05-02T06:55:45.648Z,6.78
2019-05-02T06:58:13.503Z,6.67
2019-05-02T07:00:56.410Z,10.98
2019-05-02T07:03:10.340Z,11.43
2019-05-02T07:05:37.574Z,11.48
2019-05-02T07:08:06.707Z,8.78
2019-05-02T07:10:44.109Z,5.70
2019-05-02T07:13:10.051Z,7.80
2019-05-02T07:15:48.566Z,8.18
2019-05-02T07:18:17.221Z,8.65
2019-05-02T07:20:43.963Z,6.45
2019-05-02T07:23:15.866Z,8.45
2019-05-02T07:25:43.903Z,6.42
2019-05-02T07:28:09.441Z,7.00
2019-05-02T07:30:37.149Z,8.45
2019-05-02T07:33:04.088Z,7.72
2019-05-02T07:35:30.765Z,6.95
2019-05-02T07:37:57.545Z,4.72
2019-05-02T07:40:24.223Z,6.65
2019-05-02T07:42:50.976Z,7.90
2019-05-02T07:45:17.943Z,5.00
2019-05-02T07:47:44.798Z,8.38
2019-05-02T07:50:12.262Z,7.60
2019-05-02T07:52:41.012Z,6.75
2019-05-02T07:55:10.171Z,10.55
2019-05-02T07:57:37.414Z,6.75
2019-05-02T08:00:11.152Z,6.55
2019-05-02T08:02:37.904Z,6.87
2019-05-02T08:05:05.106Z,4.92
2019-05-02T08:07:34.140Z,4.03
2019-05-02T08:10:00.708Z,5.33
2019-05-02T08:12:27.497Z,6.97
2019-05-02T08:14:54.274Z,11.08
2019-05-02T08:17:21.051Z,7.50
2019-05-02T08:19:47.723Z,5.67
2019-05-02T08:22:15.001Z,7.17
2019-05-02T08:24:41.768Z,8.40
2019-05-02T08:27:10.444Z,9.03
2019-05-02T08:29:37.520Z,3.30
2019-05-02T08:32:04.259Z,6.85
2019-05-02T08:34:32.976Z,5.65
2019-05-02T08:37:03.460Z,4.45
2019-05-02T08:39:33.010Z,6.47
2019-05-02T08:41:57.931Z,8.48
2019-05-02T08:44:25.705Z,6.60
2019-05-02T08:46:53.299Z,5.72
2019-05-02T08:49:21.120Z,5.08
2019-05-02T08:51:47.991Z,4.85
2019-05-02T08:54:14.774Z,5.03
2019-05-02T08:56:41.583Z,5.97
2019-05-02T08:59:08.358Z,7.15
2019-05-02T09:01:35.663Z,6.67
2019-05-02T09:04:03.344Z,3.42
2019-05-02T09:06:30.077Z,4.40
2019-05-02T09:08:56.903Z,4.05
2019-05-02T09:11:23.808Z,4.95
2019-05-02T09:13:52.478Z,4.47
2019-05-02T09:16:23.667Z,4.42
2019-05-02T09:18:51.852Z,4.15
2019-05-02T09:21:16.548Z,7.40
2019-05-02T09:23:44.009Z,4.83
2019-05-02T09:26:11.926Z,3.83
2019-05-02T09:28:38.608Z,5.15
2019-05-02T09:31:06.751Z,3.52
2019-05-02T09:33:36.886Z,4.72
2019-05-02T09:36:02.514Z,4.97
2019-05-02T09:38:29.309Z,3.92
2019-05-02T09:40:56.375Z,5.12
2019-05-02T09:43:23.350Z,4.33
2019-05-02T09:45:52.031Z,9.73
2019-05-02T09:48:22.879Z,7.40
2019-05-02T09:50:47.495Z,2.80
2019-05-02T09:53:20.643Z,5.45
2019-05-02T09:55:50.420Z,9.33
2019-05-02T09:58:19.029Z,10.00
2019-05-02T10:00:45.288Z,9.48
2019-05-02T10:03:12.212Z,6.10
2019-05-02T10:05:38.913Z,7.22
2019-05-02T10:08:08.054Z,7.58
2019-05-02T10:10:37.190Z,8.73
2019-05-02T10:13:04.566Z,8.03
2019-05-02T10:15:32.708Z,4.42
2019-05-02T10:18:08.842Z,5.42
2019-05-02T10:20:34.189Z,5.12
2019-05-02T10:22:57.857Z,5.37
2019-05-02T10:25:25.629Z,5.70
2019-05-02T10:27:52.497Z,7.62
2019-05-02T10:30:21.669Z,6.78
2019-05-02T10:32:52.814Z,5.78
2019-05-02T10:35:18.969Z,6.92
2019-05-02T10:37:45.630Z,10.38
2019-05-02T10:40:16.021Z,3.77
2019-05-02T10:42:41.959Z,7.47
2019-05-02T10:45:12.980Z,5.53
2019-05-02T10:47:37.571Z,9.73
2019-05-02T10:50:22.851Z,8.25
2019-05-02T10:52:49.650Z,5.58
2019-05-02T10:55:16.562Z,5.20
2019-05-02T10:57:43.329Z,5.03
2019-05-02T11:00:16.183Z,4.30
2019-05-02T11:02:47.960Z,3.92
2019-05-02T11:05:21.450Z,4.58
2019-05-02T11:07:45.267Z,6.42
2019-05-02T11:10:13.033Z,5.37
2019-05-02T11:12:47.699Z,8.48
2019-05-02T11:15:19.361Z,6.67
2019-05-02T11:17:47.961Z,3.27
2019-05-02T11:20:14.741Z,6.83
2019-05-02T11:22:42.781Z,4.92
2019-05-02T11:25:11.973Z,8.90
2019-05-02T11:27:38.417Z,5.25
2019-05-02T11:30:06.601Z,4.15
2019-05-02T11:32:33.331Z,5.72
2019-05-02T11:35:00.189Z,4.60
2019-05-02T11:37:26.955Z,3.65
2019-05-02T11:39:59.293Z,4.90
2019-05-02T11:42:26.966Z,5.67
2019-05-02T11:44:52.359Z,4.87
2019-05-02T11:47:24.849Z,9.45
2019-05-02T11:49:52.096Z,3.20
2019-05-02T11:52:16.210Z,7.95
2019-05-02T11:54:46.820Z,6.80
2019-05-02T11:57:13.143Z,4.85
2019-05-02T11:59:39.899Z,5.42
2019-05-02T12:02:18.840Z,5.10
2019-05-02T12:04:42.886Z,4.03
2019-05-02T12:07:09.632Z,6.47
2019-05-02T12:09:36.484Z,7.12
2019-05-02T12:12:03.547Z,4.85
2019-05-02T12:14:32.832Z,3.77
2019-05-02T12:16:58.957Z,3.80
2019-05-02T12:19:25.783Z,3.02
2019-05-02T12:21:54.249Z,4.60
2019-05-02T12:24:22.164Z,6.47
2019-05-02T12:26:49.096Z,7.05
2019-05-02T12:29:15.942Z,6.15
2019-05-02T12:31:42.783Z,3.20
2019-05-02T12:34:09.603Z,7.00
2019-05-02T12:36:36.340Z,5.28
2019-05-02T12:39:04.727Z,3.77
2019-05-02T12:41:33.114Z,4.08
2019-05-02T12:44:02.086Z,3.77
2019-05-02T12:46:28.851Z,4.12
2019-05-02T12:48:55.709Z,3.58
2019-05-02T12:51:22.679Z,6.30
2019-05-02T12:53:49.398Z,4.05
2019-05-02T12:56:16.170Z,5.58
2019-05-02T12:58:43.117Z,5.08
2019-05-02T13:01:12.149Z,3.40
2019-05-02T13:03:43.763Z,3.45
2019-05-02T13:08:47.678Z,4.65
2019-05-02T13:11:31.975Z,3.52
2019-05-02T13:13:58.877Z,4.58
2019-05-02T13:16:25.632Z,4.50
2019-05-02T13:18:57.115Z,6.62
2019-05-02T13:21:23.543Z,4.70
2019-05-02T13:23:52.508Z,4.17
2019-05-02T13:26:24.381Z,5.62
2019-05-02T13:28:47.965Z,6.65
2019-05-02T13:31:16.545Z,7.28
2019-05-02T13:33:45.122Z,5.55
2019-05-02T13:36:42.662Z,3.92
2019-05-02T13:39:14.544Z,4.03
2019-05-02T13:44:12.901Z,5.80
2019-05-02T13:46:41.843Z,4.75
2019-05-02T13:49:08.456Z,4.53
2019-05-02T13:51:36.565Z,4.45
2019-05-02T13:54:04.169Z,6.12
2019-05-02T13:56:52.351Z,4.20
2019-05-02T13:59:19.188Z,4.22
2019-05-02T14:01:47.849Z,7.37
2019-05-02T14:04:15.181Z,5.65
2019-05-02T14:06:43.119Z,2.92
2019-05-02T14:09:22.465Z,7.10
2019-05-02T14:11:56.963Z,4.10
2019-05-02T14:14:23.827Z,6.03
2019-05-02T14:16:50.580Z,6.37
2019-05-02T14:19:17.339Z,4.95
2019-05-02T14:21:44.211Z,4.85
2019-05-02T14:24:12.473Z,6.35
2019-05-02T14:26:40.234Z,5.28
2019-05-02T14:29:11.596Z,3.72
2019-05-02T14:31:35.815Z,4.80
2019-05-02T14:34:21.734Z,4.67
2019-05-02T14:36:48.837Z,8.80
2019-05-02T14:39:15.701Z,3.77
2019-05-02T14:41:44.585Z,6.03
2019-05-02T14:44:12.099Z,4.50
2019-05-02T14:46:39.638Z,5.00
2019-05-02T14:49:06.763Z,4.22
2019-05-02T14:51:36.476Z,5.78
2019-05-02T14:54:07.916Z,2.12
2019-05-02T14:56:49.525Z,3.95
2019-05-02T14:59:19.803Z,4.55
2019-05-02T15:01:49.659Z,3.05
2019-05-02T15:04:16.376Z,3.80
2019-05-02T15:06:47.294Z,4.97
2019-05-02T15:09:12.133Z,3.65
2019-05-02T15:11:57.137Z,2.87
2019-05-02T15:14:27.698Z,8.28
2019-05-02T15:16:58.057Z,4.08
2019-05-02T15:19:22.695Z,6.53
2019-05-02T15:21:54.366Z,4.70
2019-05-02T15:24:18.121Z,5.65
2019-05-02T15:26:45.279Z,3.72
2019-05-02T15:29:19.224Z,7.28
2019-05-02T15:32:03.313Z,3.77
2019-05-02T15:34:47.857Z,3.67
2019-05-02T15:37:16.983Z,4.95
2019-05-02T15:42:12.153Z,6.65
2019-05-02T15:44:38.942Z,3.35
2019-05-02T15:47:07.047Z,5.00
2019-05-02T15:49:36.663Z,4.15
2019-05-02T15:52:05.677Z,5.10
2019-05-02T15:54:32.442Z,4.95
2019-05-02T15:57:00.963Z,2.98
2019-05-02T15:59:32.517Z,5.15
2019-05-02T16:02:03.012Z,3.37
2019-05-02T16:04:32.787Z,5.30
2019-05-02T16:07:00.457Z,4.47
2019-05-02T16:09:28.138Z,6.50
2019-05-02T16:11:56.838Z,5.40
2019-05-02T16:14:27.096Z,6.37
2019-05-02T16:16:52.213Z,4.85
2019-05-02T16:19:27.635Z,3.85
2019-05-02T16:21:59.538Z,3.25
2019-05-02T16:24:25.108Z,5.15
2019-05-02T16:26:56.589Z,4.08
2019-05-02T16:29:26.842Z,4.67
2019-05-02T16:32:08.352Z,2.98
2019-05-02T16:34:37.023Z,5.03
2019-05-02T16:37:13.585Z,3.87
2019-05-02T16:39:42.642Z,3.55
2019-05-02T16:42:08.683Z,2.92
2019-05-02T16:44:36.560Z,4.17
2019-05-02T16:47:04.518Z,5.12
2019-05-02T16:49:32.204Z,4.87
2019-05-02T16:52:05.046Z,6.85
2019-05-02T16:54:27.720Z,4.87
2019-05-02T16:56:54.384Z,5.47
2019-05-02T16:59:23.162Z,5.12
2019-05-02T17:01:52.660Z,10.20
2019-05-02T17:04:18.455Z,6.00
2019-05-02T17:06:45.537Z,4.22
2019-05-02T17:09:33.893Z,3.37
2019-05-02T17:11:58.738Z,2.90
2019-05-02T17:14:25.535Z,4.45
2019-05-02T17:16:55.769Z,4.10
2019-05-02T17:19:21.598Z,3.60
2019-05-02T17:21:55.931Z,3.70
2019-05-02T17:24:17.429Z,4.00
2019-05-02T17:26:45.685Z,2.92
2019-05-02T17:29:16.397Z,3.08
2019-05-02T17:31:42.699Z,5.03
2019-05-02T17:34:11.913Z,2.65
2019-05-02T17:36:38.355Z,7.97
2019-05-02T17:39:08.170Z,6.87
2019-05-02T17:41:37.143Z,2.80
2019-05-02T17:44:05.358Z,8.58
2019-05-02T17:46:32.035Z,10.98
2019-05-02T17:48:58.899Z,9.45
2019-05-02T17:51:37.808Z,7.97
2019-05-02T17:54:04.972Z,5.10
2019-05-02T17:56:32.590Z,9.65
2019-05-02T17:58:59.405Z,6.42
2019-05-02T18:01:31.868Z,7.03
2019-05-02T18:03:56.747Z,3.52
2019-05-02T18:06:32.394Z,7.55
2019-05-02T18:08:55.266Z,3.72
2019-05-02T18:11:22.338Z,3.25
2019-05-02T18:13:49.219Z,7.00
2019-05-02T18:16:16.785Z,6.92
2019-05-02T18:18:46.665Z,5.08
2019-05-02T18:21:12.745Z,5.25
2019-05-02T18:23:39.554Z,7.85
2019-05-02T18:26:06.517Z,7.22
2019-05-02T18:28:45.834Z,4.10
2019-05-02T18:31:05.730Z,5.72
2019-05-02T18:33:30.800Z,5.25
2019-05-02T18:35:57.524Z,9.40
2019-05-02T18:38:25.543Z,4.95
2019-05-02T18:40:55.171Z,6.40
2019-05-02T18:43:22.243Z,5.50
2019-05-02T18:45:49.145Z,4.80
2019-05-02T18:48:15.916Z,3.33
2019-05-02T18:50:46.852Z,5.35
2019-05-02T18:53:13.612Z,8.98
2019-05-02T18:55:42.045Z,5.33
2019-05-02T18:58:09.194Z,6.70
2019-05-02T19:00:39.503Z,5.28
2019-05-02T19:03:07.473Z,6.35
2019-05-02T19:05:35.127Z,5.58
2019-05-02T19:08:02.453Z,4.90
2019-05-02T19:10:29.485Z,2.98
2019-05-02T19:13:01.042Z,2.90
2019-05-02T19:15:24.899Z,4.42
2019-05-02T19:17:52.889Z,4.80
2019-05-02T19:20:23.456Z,3.95
2019-05-02T19:22:56.337Z,3.67
2019-05-02T19:25:20.107Z,6.12
2019-05-02T19:27:52.221Z,4.62
2019-05-02T19:30:36.561Z,3.77
2019-05-02T19:33:07.619Z,4.25
2019-05-02T19:35:32.760Z,4.80
2019-05-02T19:37:59.724Z,3.10
2019-05-02T19:40:28.302Z,3.02
2019-05-02T19:42:57.345Z,2.80
2019-05-02T19:45:24.027Z,2.30
2019-05-02T19:47:54.289Z,4.85
2019-05-02T19:50:32.264Z,4.37
2019-05-02T19:53:01.995Z,2.22
2019-05-02T19:55:27.546Z,3.58
2019-05-02T19:57:56.610Z,2.87
2019-05-02T20:00:24.128Z,5.62
2019-05-02T20:02:52.245Z,3.75
2019-05-02T20:05:21.907Z,2.98
2019-05-02T20:07:47.737Z,4.47
2019-05-02T20:10:17.942Z,3.20
2019-05-02T20:12:48.189Z,3.30
2019-05-02T20:15:17.016Z,2.12
2019-05-02T20:17:44.685Z,5.72
2019-05-02T20:20:36.011Z,2.55
2019-05-02T20:23:14.991Z,5.87
2019-05-02T20:25:37.884Z,2.35
2019-05-02T20:28:01.878Z,2.67
2019-05-02T20:30:28.745Z,4.72
2019-05-02T20:32:55.505Z,3.60
2019-05-02T20:35:22.687Z,6.45
2019-05-02T20:37:49.506Z,3.87
2019-05-02T20:40:27.497Z,4.00
2019-05-02T20:42:54.332Z,5.67
2019-05-02T20:45:22.747Z,5.92
2019-05-02T20:47:49.637Z,6.92
2019-05-02T20:50:16.302Z,6.03
2019-05-02T20:52:43.092Z,7.62
2019-05-02T20:55:09.977Z,4.97
2019-05-02T20:57:36.844Z,4.05
2019-05-02T21:00:12.134Z,4.80
2019-05-02T21:02:38.837Z,6.25
2019-05-02T21:05:06.914Z,5.15
2019-05-02T21:07:42.402Z,3.62
2019-05-02T21:10:12.494Z,4.65
2019-05-02T21:12:39.367Z,2.87
2019-05-02T21:15:06.540Z,5.40
2019-05-02T21:17:33.393Z,4.08
2019-05-02T21:20:01.939Z,4.95
2019-05-02T21:22:29.608Z,6.00
2019-05-02T21:24:56.352Z,4.83
2019-05-02T21:27:23.129Z,4.08
2019-05-02T21:29:52.095Z,2.98
2019-05-02T21:32:18.675Z,3.20
2019-05-02T21:34:45.656Z,4.37
2019-05-02T21:37:13.085Z,3.95
2019-05-02T21:39:39.784Z,3.60
2019-05-02T21:42:06.536Z,5.58
2019-05-02T21:44:33.906Z,2.95
2019-05-02T21:47:02.487Z,3.37
2019-05-02T21:49:37.008Z,3.85
2019-05-02T21:52:14.711Z,1.95
2019-05-02T21:54:49.184Z,3.35
2019-05-02T21:57:17.564Z,2.85
2019-05-02T21:59:44.375Z,3.52
2019-05-02T22:02:11.949Z,2.98
2019-05-02T22:04:38.739Z,4.85
2019-05-02T22:07:05.699Z,4.42
2019-05-02T22:09:32.492Z,5.00
2019-05-02T22:12:11.816Z,6.97
2019-05-02T22:22:49.518Z,3.22
2019-05-02T22:25:17.256Z,3.98
2019-05-02T22:27:44.019Z,4.62
2019-05-02T22:30:12.402Z,3.45
2019-05-02T22:32:39.236Z,4.95
2019-05-02T22:35:06.389Z,6.92
2019-05-02T22:37:33.384Z,5.42
2019-05-02T22:40:03.949Z,5.60
2019-05-02T22:42:32.366Z,4.92
2019-05-02T22:44:59.300Z,5.40
2019-05-02T22:47:32.028Z,4.75
2019-05-02T22:50:03.042Z,7.30
2019-05-02T22:52:33.220Z,2.40
2019-05-02T22:55:12.001Z,5.20
2019-05-02T22:57:55.146Z,3.90
2019-05-02T23:00:45.555Z,3.42
2019-05-02T23:22:52.378Z,3.20
2019-05-02T23:25:39.111Z,3.75
2019-05-02T23:28:07.612Z,4.05
2019-05-02T23:30:34.446Z,5.40
2019-05-02T23:33:02.322Z,4.42
2019-05-02T23:35:29.118Z,2.98
2019-05-02T23:37:55.904Z,5.65
2019-05-02T23:40:22.815Z,5.55
2019-05-02T23:42:49.703Z,8.68
2019-05-02T23:45:16.461Z,6.58
2019-05-02T23:47:43.241Z,4.12
2019-05-02T23:50:12.004Z,5.95
2019-05-02T23:52:38.759Z,5.58
2019-05-02T23:55:06.469Z,6.17
2019-05-02T23:57:33.378Z,3.40
